McIntyre, Louisiana
Current Conditions -  °F | °C
As of 11:35 PM on Friday 24 Oct 2014 (Local Time) from KMNE Reporting Station
Haze Haze  
Wind Chill: 13°   Ceiling: Unl
Heat Index: 13°   Visibility: 4mi
Dew Point: 12°   Wind: 0mph
Humidity: 94%   Direction: NA
Pressure: 30.14"   Gusts: NA
Location:  32.7093°N, 93.3068°W
Report Text: KMNE 250435Z AUTO 00000KT 4SM BR CLR 13/12 A3014 RMK AO2
Loading
Personal Weather Stations






























Interactive Weather Map
Tropical Storm Tracking
New forecast layout! Learn more

10-Day Weather Forecast

Advertisements
Track Severe Weather on mobile